createdAt,value
2018-03-29T00:00:54.064Z,-2.10
2018-03-29T00:03:22.432Z,-2.10
2018-03-29T00:05:50.052Z,-2.10
2018-03-29T00:08:17.676Z,-2.10
2018-03-29T00:10:46.068Z,-2.10
2018-03-29T00:13:13.681Z,-2.10
2018-03-29T00:15:41.276Z,-2.10
2018-03-29T00:18:08.880Z,-2.10
2018-03-29T00:20:36.490Z,-2.10
2018-03-29T00:23:04.123Z,-2.10
2018-03-29T00:25:31.724Z,-2.10
2018-03-29T00:27:59.336Z,-2.20
2018-03-29T00:30:26.947Z,-2.10
2018-03-29T00:32:54.560Z,-2.20
2018-03-29T00:35:22.235Z,-2.20
2018-03-29T00:37:49.836Z,-2.20
2018-03-29T00:40:17.431Z,-2.20
2018-03-29T00:42:45.042Z,-2.20
2018-03-29T00:45:12.643Z,-2.20
2018-03-29T00:47:40.240Z,-2.20
2018-03-29T00:50:07.867Z,-2.30
2018-03-29T00:52:35.484Z,-2.30
2018-03-29T00:55:03.084Z,-2.30
2018-03-29T00:57:30.701Z,-2.30
2018-03-29T00:59:58.310Z,-2.30
2018-03-29T01:02:25.912Z,-2.30
2018-03-29T01:04:53.543Z,-2.40
2018-03-29T01:07:21.156Z,-2.40
2018-03-29T01:09:48.776Z,-2.40
2018-03-29T01:12:16.416Z,-2.40
2018-03-29T01:14:44.024Z,-2.40
2018-03-29T01:17:11.635Z,-2.40
2018-03-29T01:19:39.279Z,-2.50
2018-03-29T01:22:06.880Z,-2.50
2018-03-29T01:24:34.484Z,-2.50
2018-03-29T01:27:02.097Z,-2.50
2018-03-29T01:29:29.704Z,-2.50
2018-03-29T01:31:57.320Z,-2.50
2018-03-29T01:34:24.999Z,-2.50
2018-03-29T01:36:52.611Z,-2.50
2018-03-29T01:39:20.214Z,-2.50
2018-03-29T01:41:48.632Z,-2.50
2018-03-29T01:44:16.252Z,-2.50
2018-03-29T01:46:44.612Z,-2.50
2018-03-29T01:49:12.231Z,-2.50
2018-03-29T01:51:40.598Z,-2.50
2018-03-29T01:54:08.971Z,-2.60
2018-03-29T01:56:36.585Z,-2.60
2018-03-29T01:59:04.193Z,-2.60
2018-03-29T02:01:31.803Z,-2.60
2018-03-29T02:03:59.412Z,-2.60
2018-03-29T02:06:27.020Z,-2.60
2018-03-29T02:08:54.619Z,-2.60
2018-03-29T02:11:22.261Z,-2.60
2018-03-29T02:13:49.862Z,-2.60
2018-03-29T02:16:17.467Z,-2.60
2018-03-29T02:18:45.122Z,-2.60
2018-03-29T02:21:12.721Z,-2.70
2018-03-29T02:23:41.085Z,-2.70
2018-03-29T02:26:08.715Z,-2.70
2018-03-29T02:28:36.316Z,-2.70
2018-03-29T02:31:04.688Z,-2.70
2018-03-29T02:33:32.308Z,-2.70
2018-03-29T02:35:59.908Z,-2.70
2018-03-29T02:38:28.283Z,-2.70
2018-03-29T02:40:55.909Z,-2.70
2018-03-29T02:43:23.516Z,-2.70
2018-03-29T02:45:51.124Z,-2.70
2018-03-29T02:48:18.752Z,-2.70
2018-03-29T02:50:46.350Z,-2.80
2018-03-29T02:53:13.956Z,-2.70
2018-03-29T02:55:42.333Z,-2.80
2018-03-29T02:58:09.936Z,-2.80
2018-03-29T03:00:37.544Z,-2.80
2018-03-29T03:03:05.169Z,-2.80
2018-03-29T03:05:32.772Z,-2.80
2018-03-29T03:08:00.389Z,-2.80
2018-03-29T03:10:28.054Z,-2.80
2018-03-29T03:12:55.675Z,-2.80
2018-03-29T03:15:23.296Z,-2.80
2018-03-29T03:17:50.952Z,-2.80
2018-03-29T03:20:18.558Z,-2.80
2018-03-29T03:22:46.165Z,-2.80
2018-03-29T03:25:13.771Z,-2.80
2018-03-29T03:27:41.376Z,-2.80
2018-03-29T03:30:08.988Z,-2.80
2018-03-29T03:32:36.606Z,-2.80
2018-03-29T03:35:04.210Z,-2.80
2018-03-29T03:37:31.803Z,-2.80
2018-03-29T03:39:59.417Z,-2.80
2018-03-29T03:42:27.788Z,-2.80
2018-03-29T03:44:55.396Z,-2.80
2018-03-29T03:47:23.031Z,-2.80
2018-03-29T03:49:50.631Z,-2.80
2018-03-29T03:52:18.234Z,-2.80
2018-03-29T03:54:46.616Z,-2.80
2018-03-29T03:57:14.987Z,-2.80
2018-03-29T03:59:42.587Z,-2.80
2018-03-29T04:02:10.223Z,-2.70
2018-03-29T04:04:38.591Z,-2.70
2018-03-29T04:07:06.974Z,-2.70
2018-03-29T04:09:34.617Z,-2.70
2018-03-29T04:12:02.231Z,-2.70
2018-03-29T04:14:29.832Z,-2.70
2018-03-29T04:16:57.464Z,-2.70
2018-03-29T04:19:25.059Z,-2.70
2018-03-29T04:21:52.679Z,-2.70
2018-03-29T04:24:20.290Z,-2.70
2018-03-29T04:26:47.891Z,-2.70
2018-03-29T04:29:15.500Z,-2.60
2018-03-29T04:31:43.871Z,-2.60
2018-03-29T04:34:11.476Z,-2.60
2018-03-29T04:36:39.077Z,-2.60
2018-03-29T04:39:08.524Z,-2.60
2018-03-29T04:41:36.151Z,-2.60
2018-03-29T04:44:03.793Z,-2.60
2018-03-29T04:46:31.443Z,-2.60
2018-03-29T04:48:59.079Z,-2.60
2018-03-29T04:51:26.695Z,-2.60
2018-03-29T04:53:54.336Z,-2.50
2018-03-29T04:56:21.932Z,-2.50
2018-03-29T04:58:49.545Z,-2.50
2018-03-29T05:01:17.246Z,-2.50
2018-03-29T05:03:44.842Z,-2.50
2018-03-29T05:06:12.451Z,-2.40
2018-03-29T05:08:40.100Z,-2.40
2018-03-29T05:11:07.725Z,-2.40
2018-03-29T05:13:35.333Z,-2.40
2018-03-29T05:16:03.000Z,-2.30
2018-03-29T05:18:30.599Z,-2.30
2018-03-29T05:20:58.199Z,-2.30
2018-03-29T05:23:25.835Z,-2.30
2018-03-29T05:25:53.451Z,-2.20
2018-03-29T05:28:21.055Z,-2.20
2018-03-29T05:30:48.664Z,-2.10
2018-03-29T05:33:16.273Z,-2.10
2018-03-29T05:35:43.942Z,-2.00
2018-03-29T05:38:11.551Z,-2.00
2018-03-29T05:40:39.162Z,-2.00
2018-03-29T05:43:06.787Z,-1.90
2018-03-29T05:45:35.228Z,-1.90
2018-03-29T05:48:02.823Z,-1.90
2018-03-29T05:50:30.436Z,-1.80
2018-03-29T05:52:58.057Z,-1.80
2018-03-29T05:55:25.698Z,-1.80
2018-03-29T05:57:53.311Z,-1.70
2018-03-29T06:00:20.932Z,-1.80
2018-03-29T06:02:48.547Z,-1.70
2018-03-29T06:05:16.175Z,-1.70
2018-03-29T06:07:43.792Z,-1.70
2018-03-29T06:10:11.416Z,-1.60
2018-03-29T06:12:39.009Z,-1.60
2018-03-29T06:15:12.244Z,-1.50
2018-03-29T06:17:42.553Z,-1.50
2018-03-29T06:20:10.912Z,-1.40
2018-03-29T06:22:38.544Z,-1.40
2018-03-29T06:25:06.145Z,-1.40
2018-03-29T06:27:34.523Z,-1.30
2018-03-29T06:30:02.900Z,-1.20
2018-03-29T06:32:31.275Z,-1.10
2018-03-29T06:34:59.646Z,-1.10
2018-03-29T06:37:28.023Z,-1.00
2018-03-29T06:39:55.620Z,-1.00
2018-03-29T06:42:23.224Z,-0.90
2018-03-29T06:44:50.835Z,-0.90
2018-03-29T06:47:18.435Z,-0.90
2018-03-29T06:49:46.064Z,-0.80
2018-03-29T06:52:13.709Z,-0.70
2018-03-29T06:54:41.311Z,-0.70
2018-03-29T06:57:08.921Z,-0.60
2018-03-29T06:59:37.296Z,-0.50
2018-03-29T07:02:04.916Z,-0.50
2018-03-29T07:04:32.525Z,-0.40
2018-03-29T07:07:00.940Z,-0.30
2018-03-29T07:09:28.565Z,-0.30
2018-03-29T07:11:56.182Z,-0.20
2018-03-29T07:14:23.820Z,-0.10
2018-03-29T07:16:51.415Z,-0.10
2018-03-29T07:19:19.016Z,0.00
2018-03-29T07:21:46.659Z,0.10
2018-03-29T07:24:15.028Z,0.30
2018-03-29T07:26:42.622Z,0.30
2018-03-29T07:29:10.227Z,0.50
2018-03-29T07:31:37.821Z,0.50
2018-03-29T07:34:05.449Z,0.60
2018-03-29T07:36:33.122Z,0.80
2018-03-29T07:39:00.688Z,0.90
2018-03-29T07:41:28.292Z,1.00
2018-03-29T07:43:55.904Z,1.00
2018-03-29T07:46:23.512Z,1.10
2018-03-29T07:48:51.119Z,1.20
2018-03-29T07:51:18.737Z,1.30
2018-03-29T07:53:46.331Z,1.30
2018-03-29T07:56:13.942Z,1.20
2018-03-29T07:58:41.595Z,1.30
2018-03-29T08:01:09.191Z,1.40
2018-03-29T08:03:36.796Z,1.30
2018-03-29T08:06:04.423Z,1.30
2018-03-29T08:08:32.781Z,1.50
2018-03-29T08:11:00.384Z,1.50
2018-03-29T08:13:28.006Z,1.50
2018-03-29T08:15:55.604Z,1.60
2018-03-29T08:18:23.201Z,1.50
2018-03-29T08:20:50.806Z,1.60
2018-03-29T08:23:18.403Z,1.60
2018-03-29T08:25:46.763Z,1.80
2018-03-29T08:28:14.382Z,1.80
2018-03-29T08:30:42.018Z,1.90
2018-03-29T08:33:09.672Z,1.90
2018-03-29T08:35:37.291Z,1.90
2018-03-29T08:38:04.896Z,2.10
2018-03-29T08:40:32.485Z,2.30
2018-03-29T08:43:00.136Z,2.30
2018-03-29T08:45:27.741Z,2.40
2018-03-29T08:47:56.116Z,2.70
2018-03-29T08:50:23.732Z,2.70
2018-03-29T08:52:51.328Z,2.80
2018-03-29T08:55:18.919Z,2.80
2018-03-29T08:57:47.292Z,3.00
2018-03-29T09:00:14.900Z,2.90
2018-03-29T09:02:42.496Z,3.00
2018-03-29T09:05:10.124Z,2.90
2018-03-29T09:07:37.732Z,2.90
2018-03-29T09:10:05.332Z,3.00
2018-03-29T09:12:33.702Z,2.90
2018-03-29T09:15:01.296Z,2.90
2018-03-29T09:17:29.632Z,3.00
2018-03-29T09:19:57.250Z,3.20
2018-03-29T09:22:24.856Z,3.30
2018-03-29T09:24:52.463Z,3.20
2018-03-29T09:27:20.067Z,3.30
2018-03-29T09:29:47.663Z,3.30
2018-03-29T09:32:15.251Z,3.40
2018-03-29T09:34:42.848Z,3.50
2018-03-29T09:37:10.439Z,3.40
2018-03-29T09:39:38.043Z,3.40
2018-03-29T09:42:05.651Z,3.40
2018-03-29T09:44:33.244Z,3.50
2018-03-29T09:47:00.839Z,3.60
2018-03-29T09:49:28.467Z,3.70
2018-03-29T09:51:56.059Z,3.90
2018-03-29T09:54:23.661Z,3.90
2018-03-29T09:56:51.264Z,4.10
2018-03-29T09:59:18.867Z,4.00
2018-03-29T10:01:46.464Z,4.00
2018-03-29T10:04:14.091Z,3.80
2018-03-29T10:06:41.683Z,3.80
2018-03-29T10:09:09.275Z,3.90
2018-03-29T10:11:37.779Z,3.90
2018-03-29T10:14:05.373Z,4.00
2018-03-29T10:16:33.740Z,4.20
2018-03-29T10:19:01.388Z,4.20
2018-03-29T10:21:28.984Z,4.30
2018-03-29T10:23:56.579Z,4.20
2018-03-29T10:26:24.188Z,4.30
2018-03-29T10:28:51.779Z,4.30
2018-03-29T10:31:19.372Z,4.30
2018-03-29T10:33:46.978Z,4.30
2018-03-29T10:36:14.567Z,4.40
2018-03-29T10:38:42.159Z,4.50
2018-03-29T10:41:09.823Z,4.70
2018-03-29T10:43:37.408Z,4.80
2018-03-29T10:46:04.999Z,4.90
2018-03-29T10:48:32.628Z,4.90
2018-03-29T10:51:00.223Z,4.90
2018-03-29T10:53:27.820Z,5.10
2018-03-29T10:55:55.436Z,5.30
2018-03-29T10:58:23.036Z,5.30
2018-03-29T11:00:50.631Z,5.40
2018-03-29T11:03:18.292Z,5.50
2018-03-29T11:05:45.877Z,5.40
2018-03-29T11:08:13.507Z,5.40
2018-03-29T11:10:41.115Z,5.40
2018-03-29T11:13:08.733Z,5.30
2018-03-29T11:15:36.327Z,5.50
2018-03-29T11:18:03.944Z,5.70
2018-03-29T11:20:31.544Z,5.80
2018-03-29T11:22:59.144Z,5.90
2018-03-29T11:25:26.768Z,5.90
2018-03-29T11:27:54.357Z,6.10
2018-03-29T11:30:21.951Z,6.30
2018-03-29T11:32:49.549Z,6.30
2018-03-29T11:35:17.912Z,6.30
2018-03-29T11:37:45.524Z,6.30
2018-03-29T11:40:13.132Z,6.30
2018-03-29T11:42:40.728Z,6.40
2018-03-29T11:45:09.093Z,6.50
2018-03-29T11:47:36.696Z,6.50
2018-03-29T11:50:04.288Z,6.30
2018-03-29T11:52:31.882Z,6.40
2018-03-29T11:54:59.520Z,6.40
2018-03-29T11:57:27.124Z,6.40
2018-03-29T11:59:55.496Z,6.40
2018-03-29T12:02:23.104Z,6.40
2018-03-29T12:04:50.719Z,6.40
2018-03-29T12:07:18.312Z,6.50
2018-03-29T12:09:45.911Z,6.50
2018-03-29T12:12:13.503Z,6.70
2018-03-29T12:14:41.092Z,6.70
2018-03-29T12:17:08.699Z,6.90
2018-03-29T12:19:37.065Z,7.30
2018-03-29T12:22:05.423Z,7.60
2018-03-29T12:24:33.029Z,7.50
2018-03-29T12:27:00.620Z,7.30
2018-03-29T12:29:28.220Z,7.30
2018-03-29T12:31:56.607Z,7.90
2018-03-29T12:34:24.202Z,7.90
2018-03-29T12:36:51.818Z,9.00
2018-03-29T12:39:19.429Z,9.40
2018-03-29T12:41:47.048Z,10.00
2018-03-29T12:44:14.650Z,9.90
2018-03-29T12:46:42.264Z,10.40
2018-03-29T12:49:10.655Z,11.00
2018-03-29T12:51:38.284Z,11.00
2018-03-29T12:54:05.902Z,10.80
2018-03-29T12:56:45.327Z,10.60
2018-03-29T12:59:12.951Z,11.20
2018-03-29T13:01:40.547Z,11.00
2018-03-29T13:04:08.151Z,10.70
2018-03-29T13:06:35.784Z,10.80
2018-03-29T13:09:03.405Z,10.30
2018-03-29T13:11:31.777Z,9.70
2018-03-29T13:14:00.184Z,9.70
2018-03-29T13:16:27.852Z,9.60
2018-03-29T13:18:55.508Z,10.30
2018-03-29T13:21:23.124Z,9.90
2018-03-29T13:23:50.739Z,10.30
2018-03-29T13:26:18.336Z,10.60
2018-03-29T13:28:45.959Z,10.70
2018-03-29T13:31:13.564Z,10.30
2018-03-29T13:33:41.168Z,10.30
2018-03-29T13:36:08.790Z,10.60
2018-03-29T13:38:36.392Z,11.10
2018-03-29T13:41:03.984Z,9.70
2018-03-29T13:43:31.602Z,11.20
2018-03-29T13:45:59.250Z,10.70
2018-03-29T13:48:27.749Z,10.10
2018-03-29T13:50:55.367Z,10.10
2018-03-29T13:53:22.971Z,9.40
2018-03-29T13:55:50.576Z,9.20
2018-03-29T13:58:18.183Z,8.30
2018-03-29T14:00:46.544Z,8.20
2018-03-29T14:03:14.153Z,8.20
2018-03-29T14:05:41.767Z,8.10
2018-03-29T14:08:09.368Z,8.00
2018-03-29T14:10:37.024Z,8.30
2018-03-29T14:13:04.613Z,8.30
2018-03-29T14:15:32.208Z,8.60
2018-03-29T14:18:00.567Z,8.50
2018-03-29T14:20:28.192Z,8.50
2018-03-29T14:22:55.791Z,8.70
2018-03-29T14:25:23.392Z,9.90
2018-03-29T14:27:51.021Z,10.70
2018-03-29T14:30:19.420Z,12.10
2018-03-29T14:32:47.789Z,12.20
2018-03-29T14:35:16.189Z,10.40
2018-03-29T14:37:43.815Z,10.40
2018-03-29T14:40:12.187Z,9.10
2018-03-29T14:42:39.808Z,9.10
2018-03-29T14:45:07.443Z,8.70
2018-03-29T14:47:35.034Z,8.20
2018-03-29T14:50:02.663Z,7.40
2018-03-29T14:52:30.280Z,7.10
2018-03-29T14:54:57.899Z,7.00
2018-03-29T14:57:26.112Z,6.60
2018-03-29T14:59:53.705Z,6.50
2018-03-29T15:02:22.059Z,6.20
2018-03-29T15:04:49.680Z,6.20
2018-03-29T15:07:17.295Z,6.10
2018-03-29T15:09:45.656Z,6.10
2018-03-29T15:12:13.273Z,6.00
2018-03-29T15:14:40.861Z,5.80
2018-03-29T15:17:08.452Z,5.80
2018-03-29T15:19:36.824Z,5.90
2018-03-29T15:22:04.420Z,5.80
2018-03-29T15:24:32.011Z,5.60
2018-03-29T15:26:59.663Z,5.60
2018-03-29T15:29:27.299Z,5.50
2018-03-29T15:31:54.924Z,5.50
2018-03-29T15:34:22.541Z,5.40
2018-03-29T15:36:50.135Z,4.90
2018-03-29T15:39:17.731Z,5.30
2018-03-29T15:41:45.335Z,5.40
2018-03-29T15:44:12.928Z,5.40
2018-03-29T15:46:40.519Z,5.20
2018-03-29T15:49:08.136Z,5.20
2018-03-29T15:51:36.879Z,4.80
2018-03-29T15:54:04.475Z,4.80
2018-03-29T15:56:32.128Z,4.80
2018-03-29T15:58:59.722Z,4.90
2018-03-29T16:01:28.084Z,4.80
2018-03-29T16:03:55.703Z,4.80
2018-03-29T16:06:23.311Z,4.70
2018-03-29T16:08:50.911Z,4.80
2018-03-29T16:13:48.248Z,4.60
2018-03-29T16:16:16.611Z,4.70
2018-03-29T16:18:44.233Z,4.60
2018-03-29T16:21:11.826Z,4.70
2018-03-29T16:23:39.411Z,4.70
2018-03-29T16:26:07.787Z,4.60
2018-03-29T16:28:35.380Z,4.60
2018-03-29T16:31:02.975Z,4.60
2018-03-29T16:33:30.576Z,4.50
2018-03-29T16:35:58.209Z,4.40
2018-03-29T16:38:25.808Z,4.30
2018-03-29T16:40:53.443Z,4.20
2018-03-29T16:43:21.061Z,4.20
2018-03-29T16:45:52.436Z,4.10
2018-03-29T16:48:20.048Z,4.20
2018-03-29T16:50:47.644Z,4.10
2018-03-29T16:53:15.246Z,4.00
2018-03-29T16:55:42.855Z,3.90
2018-03-29T16:58:10.459Z,3.80
2018-03-29T17:00:38.819Z,3.70
2018-03-29T17:03:06.419Z,3.70
2018-03-29T17:05:34.015Z,3.60
2018-03-29T17:08:02.736Z,3.40
2018-03-29T17:10:30.352Z,3.40
2018-03-29T17:12:57.947Z,3.40
2018-03-29T17:15:25.568Z,3.40
2018-03-29T17:17:53.179Z,3.30
2018-03-29T17:20:21.540Z,3.20
2018-03-29T17:22:49.150Z,3.10
2018-03-29T17:25:16.755Z,3.10
2018-03-29T17:27:44.363Z,3.10
2018-03-29T17:30:11.956Z,3.00
2018-03-29T17:32:39.555Z,2.90
2018-03-29T17:35:07.211Z,2.90
2018-03-29T17:37:34.844Z,2.80
2018-03-29T17:40:02.448Z,2.70
2018-03-29T17:42:30.803Z,3.10
2018-03-29T17:44:58.406Z,2.60
2018-03-29T17:47:26.015Z,2.60
2018-03-29T17:49:53.612Z,2.60
2018-03-29T17:52:21.215Z,2.50
2018-03-29T17:54:48.834Z,2.40
2018-03-29T17:57:16.440Z,2.40
2018-03-29T17:59:44.039Z,2.30
2018-03-29T18:02:11.669Z,2.20
2018-03-29T18:04:39.276Z,2.20
2018-03-29T18:07:06.868Z,2.10
2018-03-29T18:09:34.479Z,2.10
2018-03-29T18:12:02.077Z,2.00
2018-03-29T18:14:29.701Z,2.00
2018-03-29T18:16:57.314Z,1.90
2018-03-29T18:19:24.904Z,1.80
2018-03-29T18:21:52.513Z,1.70
2018-03-29T18:24:20.198Z,1.70
2018-03-29T18:26:48.184Z,1.60
2018-03-29T18:29:15.787Z,1.50
2018-03-29T18:31:43.391Z,1.40
2018-03-29T18:34:11.028Z,1.30
2018-03-29T18:36:38.626Z,1.20
2018-03-29T18:39:06.262Z,1.20
2018-03-29T18:41:33.860Z,1.20
2018-03-29T18:44:01.456Z,1.10
2018-03-29T18:46:29.087Z,1.20
2018-03-29T18:48:56.692Z,1.10
2018-03-29T18:51:24.283Z,1.10
2018-03-29T18:53:53.404Z,1.00
2018-03-29T18:56:21.785Z,0.90
2018-03-29T18:58:50.160Z,0.90
2018-03-29T19:01:18.538Z,0.90
2018-03-29T19:03:46.922Z,1.00
2018-03-29T19:06:15.283Z,0.90
2018-03-29T19:08:42.906Z,0.90
2018-03-29T19:11:10.508Z,0.90
2018-03-29T19:13:38.108Z,0.90
2018-03-29T19:16:05.745Z,0.90
2018-03-29T19:18:34.104Z,0.80
2018-03-29T19:21:01.700Z,0.80
2018-03-29T19:23:29.308Z,0.80
2018-03-29T19:25:56.916Z,0.70
2018-03-29T19:28:24.512Z,0.70
2018-03-29T19:30:52.120Z,0.70
2018-03-29T19:33:20.491Z,0.70
2018-03-29T19:35:48.091Z,0.70
2018-03-29T19:38:15.700Z,0.60
2018-03-29T19:40:43.304Z,0.60
2018-03-29T19:43:10.961Z,0.60
2018-03-29T19:45:38.550Z,0.60
2018-03-29T19:48:06.148Z,0.60
2018-03-29T19:50:34.519Z,0.60
2018-03-29T19:53:02.204Z,0.60
2018-03-29T19:55:30.577Z,0.60
2018-03-29T19:57:58.941Z,0.50
2018-03-29T20:00:26.575Z,0.50
2018-03-29T20:02:54.211Z,0.50
2018-03-29T20:05:21.824Z,0.40
2018-03-29T20:07:49.505Z,0.40
2018-03-29T20:10:17.108Z,0.30
2018-03-29T20:12:44.700Z,0.30
2018-03-29T20:15:12.320Z,0.40
2018-03-29T20:17:39.928Z,0.30
2018-03-29T20:20:07.535Z,0.20
2018-03-29T20:22:35.144Z,0.20
2018-03-29T20:25:02.736Z,0.10
2018-03-29T20:27:30.335Z,0.10
2018-03-29T20:29:57.943Z,0.00
2018-03-29T20:32:25.546Z,0.10
2018-03-29T20:34:53.158Z,0.10
2018-03-29T20:37:20.791Z,0.00
2018-03-29T20:39:48.383Z,0.00
2018-03-29T20:42:16.758Z,-0.20
2018-03-29T20:44:44.393Z,-0.20
2018-03-29T20:47:12.009Z,-0.10
2018-03-29T20:49:39.618Z,-0.20
2018-03-29T20:52:07.237Z,-0.10
2018-03-29T20:54:34.855Z,-0.20
2018-03-29T20:57:03.225Z,-0.30
2018-03-29T20:59:30.885Z,-0.30
2018-03-29T21:01:58.525Z,-0.20
2018-03-29T21:04:26.160Z,-0.20
2018-03-29T21:06:53.817Z,-0.20
2018-03-29T21:09:21.421Z,-0.20
2018-03-29T21:11:49.024Z,-0.30
2018-03-29T21:14:16.643Z,-0.30
2018-03-29T21:16:44.247Z,-0.30
2018-03-29T21:19:11.834Z,-0.30
2018-03-29T21:21:39.438Z,-0.40
2018-03-29T21:24:07.042Z,-0.30
2018-03-29T21:26:34.621Z,-0.40
2018-03-29T21:29:03.052Z,-0.40
2018-03-29T21:31:31.364Z,-0.40
2018-03-29T21:33:58.951Z,-0.40
2018-03-29T21:36:26.569Z,-0.40
2018-03-29T21:38:54.928Z,-0.40
2018-03-29T21:41:22.526Z,-0.50
2018-03-29T21:43:50.116Z,-0.50
2018-03-29T21:46:17.726Z,-0.50
2018-03-29T21:48:45.314Z,-0.50
2018-03-29T21:51:12.888Z,-0.50
2018-03-29T21:53:40.474Z,-0.50
2018-03-29T21:56:08.830Z,-0.50
2018-03-29T21:58:36.433Z,-0.50
2018-03-29T22:01:04.025Z,-0.50
2018-03-29T22:03:31.605Z,-0.60
2018-03-29T22:05:59.220Z,-0.60
2018-03-29T22:08:26.806Z,-0.60
2018-03-29T22:10:54.389Z,-0.60
2018-03-29T22:13:23.493Z,-0.70
2018-03-29T22:15:51.067Z,-0.70
2018-03-29T22:18:19.417Z,-0.70
2018-03-29T22:20:47.041Z,-0.70
2018-03-29T22:23:14.642Z,-0.70
2018-03-29T22:25:42.230Z,-0.70
2018-03-29T22:28:09.823Z,-0.70
2018-03-29T22:30:37.414Z,-0.70
2018-03-29T22:33:04.995Z,-0.70
2018-03-29T22:35:33.355Z,-0.70
2018-03-29T22:38:00.935Z,-0.70
2018-03-29T22:40:28.535Z,-0.70
2018-03-29T22:42:56.145Z,-0.80
2018-03-29T22:45:23.724Z,-0.80
2018-03-29T22:47:51.300Z,-0.80
2018-03-29T22:50:18.921Z,-0.90
2018-03-29T22:52:46.508Z,-0.80
2018-03-29T22:55:14.857Z,-0.90
2018-03-29T22:57:42.458Z,-1.00
2018-03-29T23:00:10.071Z,-1.00
2018-03-29T23:02:37.647Z,-1.00
2018-03-29T23:05:05.253Z,-1.00
2018-03-29T23:07:32.833Z,-1.10
2018-03-29T23:10:00.429Z,-1.20
2018-03-29T23:12:28.034Z,-1.20
2018-03-29T23:14:55.624Z,-1.20
2018-03-29T23:17:23.198Z,-1.20
2018-03-29T23:19:50.803Z,-1.30
2018-03-29T23:22:18.398Z,-1.30
2018-03-29T23:24:46.776Z,-1.40
2018-03-29T23:27:14.375Z,-1.40
2018-03-29T23:29:42.781Z,-1.40
2018-03-29T23:32:10.379Z,-1.40
2018-03-29T23:34:37.998Z,-1.40
2018-03-29T23:37:05.601Z,-1.30
2018-03-29T23:39:33.205Z,-1.40
2018-03-29T23:42:00.811Z,-1.40
2018-03-29T23:44:28.394Z,-1.40
2018-03-29T23:46:56.030Z,-1.40
2018-03-29T23:49:23.635Z,-1.40
2018-03-29T23:51:51.214Z,-1.40
2018-03-29T23:54:18.807Z,-1.50
2018-03-29T23:56:46.472Z,-1.50
2018-03-29T23:59:14.052Z,-1.50
